Time;durP1;ratioP1;P1;durP2;ratioP2;P2;SDS_P1;SDS_P2;PMS_P1;PMS_P2;Temp;Humidity;BMP_temperature;BMP_pressure;BME280_temperature;BME280_humidity;BME280_pressure;Samples;Min_cycle;Max_cycle;Signal;HPM_P1;HPM_P2
2022/11/04 00:01:33;;;;;;;17.43;16.53;;;12.30;89.40;;;;;;5020476;28;20543;-75
2022/11/04 00:04:00;;;;;;;20.73;19.77;;;12.20;89.70;;;;;;5020010;28;20984;-75
2022/11/04 00:06:28;;;;;;;18.40;17.10;;;12.20;89.70;;;;;;5018373;28;20870;-75
2022/11/04 00:08:57;;;;;;;16.13;15.33;;;12.30;89.40;;;;;;5017979;28;20558;-75
2022/11/04 00:14:10;;;;;;;15.50;14.80;;;12.30;88.50;;;;;;5013071;28;20991;-76
2022/11/04 00:19:22;;;;;;;15.30;14.70;;;12.20;88.20;;;;;;5015430;28;20502;-75
2022/11/04 00:30:08;;;;;;;15.90;15.07;;;12.20;89.10;;;;;;5014827;28;20597;-76
2022/11/04 00:35:20;;;;;;;14.60;14.00;;;12.10;89.70;;;;;;5013983;28;20498;-75
2022/11/04 00:37:48;;;;;;;14.87;14.07;;;12.10;90.10;;;;;;5022934;28;20535;-75
2022/11/04 00:40:16;;;;;;;14.10;13.50;;;12.10;90.20;;;;;;5015669;28;20458;-75
2022/11/04 00:42:45;;;;;;;14.17;13.57;;;12.10;90.60;;;;;;5020122;28;20445;-75
2022/11/04 00:45:13;;;;;;;14.80;14.00;;;12.10;90.60;;;;;;5021002;28;20491;-75
2022/11/04 00:47:39;;;;;;;14.10;13.50;;;12.10;90.60;;;;;;5019391;28;20476;-75
2022/11/04 00:50:07;;;;;;;13.80;13.20;;;12.10;90.40;;;;;;5010972;28;20460;-75
2022/11/04 00:52:34;;;;;;;13.77;13.17;;;12.00;90.00;;;;;;5017904;28;20972;-75
2022/11/04 00:55:03;;;;;;;14.43;13.63;;;12.00;89.70;;;;;;5019693;28;20483;-75
2022/11/04 00:57:30;;;;;;;14.87;14.10;;;12.10;89.60;;;;;;5020330;28;20547;-75
2022/11/04 00:59:57;;;;;;;15.77;14.97;;;12.10;89.10;;;;;;5023089;28;20462;-75
2022/11/04 01:02:25;;;;;;;15.00;14.40;;;12.10;88.80;;;;;;5022231;28;20460;-75
2022/11/04 01:04:52;;;;;;;14.37;13.77;;;12.10;88.70;;;;;;5022365;28;20489;-75
2022/11/04 01:07:19;;;;;;;16.10;15.30;;;12.10;88.70;;;;;;5024074;28;20578;-75
2022/11/04 01:09:46;;;;;;;15.40;14.80;;;12.10;88.90;;;;;;5020698;28;21012;-75
2022/11/04 01:12:15;;;;;;;15.00;14.40;;;12.10;88.60;;;;;;5025400;28;20566;-75
2022/11/04 01:14:42;;;;;;;15.37;14.63;;;12.10;88.20;;;;;;5027785;28;20460;-75
2022/11/04 01:17:09;;;;;;;15.00;14.40;;;12.10;88.00;;;;;;5018265;28;21302;-75
2022/11/04 01:19:36;;;;;;;14.80;14.10;;;12.10;88.10;;;;;;5021961;28;21100;-75
2022/11/04 01:22:03;;;;;;;14.40;13.80;;;12.10;88.20;;;;;;5027071;28;20476;-75
2022/11/04 01:24:30;;;;;;;14.90;14.30;;;12.10;88.40;;;;;;5028236;28;20547;-75
2022/11/04 01:26:57;;;;;;;16.00;15.20;;;12.10;88.60;;;;;;5025834;28;20471;-75
2022/11/04 01:29:25;;;;;;;15.20;14.40;;;12.10;88.70;;;;;;5014456;28;20460;-75
2022/11/04 01:31:52;;;;;;;15.30;14.57;;;12.00;89.10;;;;;;5026038;28;20466;-75
2022/11/04 01:34:19;;;;;;;14.57;13.77;;;12.00;89.50;;;;;;5012065;28;21187;-75
2022/11/04 01:36:46;;;;;;;14.70;14.10;;;11.90;89.70;;;;;;5024729;28;20675;-75
2022/11/04 01:39:13;;;;;;;14.67;14.07;;;11.80;90.20;;;;;;5019349;28;20538;-75
2022/11/04 01:41:40;;;;;;;14.50;13.80;;;11.80;90.50;;;;;;5025945;28;20460;-75
2022/11/04 01:44:40;;;;;;;14.93;14.23;;;11.80;90.70;;;;;;5023693;28;20481;-75
2022/11/04 01:47:16;;;;;;;14.93;14.20;;;11.80;90.90;;;;;;5021485;28;20483;-75
2022/11/04 01:49:47;;;;;;;14.90;14.20;;;11.80;90.20;;;;;;5025424;28;20833;-75
2022/11/04 01:52:18;;;;;;;14.70;13.97;;;11.80;90.00;;;;;;5026575;28;20531;-75
2022/11/04 01:54:48;;;;;;;15.17;14.47;;;11.80;89.90;;;;;;5023670;28;20474;-75
2022/11/04 01:57:22;;;;;;;15.87;15.17;;;11.80;89.90;;;;;;5017916;28;20905;-75
2022/11/04 01:59:49;;;;;;;14.93;14.23;;;11.80;89.60;;;;;;5026068;28;20451;-75
2022/11/04 02:02:18;;;;;;;15.33;14.60;;;11.80;89.70;;;;;;5024756;28;20477;-75
2022/11/04 02:04:45;;;;;;;15.00;14.30;;;11.80;90.20;;;;;;5025176;28;21006;-75
2022/11/04 02:07:12;;;;;;;15.20;14.30;;;11.70;90.90;;;;;;5024491;28;20484;-75
2022/11/04 02:09:41;;;;;;;14.60;13.90;;;11.70;91.70;;;;;;5025495;28;20460;-75
2022/11/04 02:14:53;;;;;;;15.00;14.40;;;11.60;91.60;;;;;;5022381;28;20464;-75
2022/11/04 02:17:32;;;;;;;14.47;13.87;;;11.60;91.50;;;;;;5018680;28;20470;-75
2022/11/04 02:20:19;;;;;;;15.50;14.73;;;11.60;91.50;;;;;;5017239;28;20551;-75
2022/11/04 02:23:30;;;;;;;15.40;14.80;;;11.60;91.60;;;;;;5015035;28;20964;-75
2022/11/04 02:26:30;;;;;;;15.30;14.60;;;11.40;92.10;;;;;;5024026;28;20487;-75
2022/11/04 02:29:16;;;;;;;14.10;13.50;;;11.50;91.90;;;;;;5014269;28;20487;-75
2022/11/04 02:31:49;;;;;;;13.80;13.20;;;11.50;91.10;;;;;;5015228;28;20919;-75
2022/11/04 02:34:21;;;;;;;15.07;14.47;;;11.50;91.00;;;;;;5024521;28;21087;-75
2022/11/04 02:36:58;;;;;;;14.27;13.57;;;11.50;90.10;;;;;;5013468;28;20509;-75
2022/11/04 02:39:36;;;;;;;13.60;13.00;;;11.50;89.30;;;;;;5010692;28;20464;-75
2022/11/04 02:42:12;;;;;;;14.70;14.10;;;11.40;89.40;;;;;;5017634;28;20478;-75
2022/11/04 02:44:47;;;;;;;14.10;13.40;;;11.40;90.10;;;;;;5021955;28;20453;-75
2022/11/04 02:47:16;;;;;;;14.90;14.20;;;11.30;90.70;;;;;;5023626;28;20471;-75
2022/11/04 02:49:51;;;;;;;14.30;13.63;;;11.40;90.10;;;;;;5022450;28;20500;-75
2022/11/04 02:52:22;;;;;;;15.50;14.90;;;11.40;90.00;;;;;;5023953;28;20459;-75
2022/11/04 02:55:00;;;;;;;14.70;14.10;;;11.30;89.90;;;;;;5023438;28;20551;-75
2022/11/04 02:57:30;;;;;;;15.90;15.10;;;11.30;90.50;;;;;;5024784;28;20466;-75
2022/11/04 03:00:02;;;;;;;16.27;15.57;;;11.20;90.40;;;;;;5023476;28;21040;-75
2022/11/04 03:02:36;;;;;;;15.67;15.07;;;11.20;90.30;;;;;;5021304;28;20535;-75
2022/11/04 03:05:05;;;;;;;17.03;16.23;;;11.20;90.50;;;;;;5026755;28;20484;-75
2022/11/04 03:07:35;;;;;;;16.80;16.00;;;11.10;90.50;;;;;;5026403;28;20558;-75
2022/11/04 03:10:08;;;;;;;17.40;16.60;;;11.10;91.40;;;;;;5023810;28;20538;-75
2022/11/04 03:12:40;;;;;;;20.70;19.80;;;11.10;90.70;;;;;;5022616;28;20452;-75
2022/11/04 03:15:13;;;;;;;16.73;16.03;;;11.10;89.50;;;;;;5024743;28;20479;-75
2022/11/04 03:17:46;;;;;;;19.13;18.33;;;11.20;88.80;;;;;;5019990;28;20567;-75
2022/11/04 03:20:18;;;;;;;17.30;16.50;;;11.10;89.40;;;;;;5026058;28;21028;-75
2022/11/04 03:22:45;;;;;;;17.17;16.47;;;11.10;89.80;;;;;;5017788;28;20548;-75
2022/11/04 03:25:12;;;;;;;17.53;16.83;;;11.10;89.90;;;;;;5023510;28;20506;-75
2022/11/04 03:27:45;;;;;;;23.50;22.47;;;11.00;89.80;;;;;;5020056;28;20676;-75
2022/11/04 03:30:16;;;;;;;19.23;18.40;;;11.00;89.90;;;;;;5026189;28;20559;-75
2022/11/04 03:32:49;;;;;;;17.57;16.87;;;11.00;89.60;;;;;;5024847;28;20452;-75
2022/11/04 03:35:17;;;;;;;17.70;16.80;;;11.00;89.80;;;;;;5026363;28;20507;-75
2022/11/04 03:37:46;;;;;;;18.20;17.50;;;11.00;90.80;;;;;;5017706;28;20457;-75
2022/11/04 03:40:14;;;;;;;19.57;18.73;;;11.00;90.70;;;;;;5009555;28;20544;-75
2022/11/04 03:42:47;;;;;;;16.17;15.37;;;11.00;90.60;;;;;;5019354;28;20538;-75
2022/11/04 03:45:16;;;;;;;30.40;29.10;;;11.00;90.70;;;;;;5026464;28;20472;-75
2022/11/04 03:47:43;;;;;;;27.17;25.97;;;10.90;90.80;;;;;;5014957;28;20487;-75
2022/11/04 03:50:20;;;;;;;22.20;21.20;;;10.90;91.40;;;;;;5022578;28;20544;-75
2022/11/04 03:52:47;;;;;;;21.03;20.03;;;10.80;91.90;;;;;;5016426;28;20447;-75
2022/11/04 03:55:14;;;;;;;16.90;16.20;;;10.80;91.80;;;;;;5022064;28;21052;-75
2022/11/04 03:57:51;;;;;;;19.60;18.80;;;10.70;92.00;;;;;;5024519;28;20514;-75
2022/11/04 04:00:21;;;;;;;19.77;18.87;;;10.70;92.00;;;;;;5024157;28;20460;-75
2022/11/04 04:03:02;;;;;;;16.53;15.83;;;10.70;91.80;;;;;;5012863;28;20484;-75
2022/11/04 04:05:32;;;;;;;21.57;20.57;;;10.70;91.80;;;;;;5023870;28;21082;-75
2022/11/04 04:08:11;;;;;;;18.23;17.43;;;10.60;92.00;;;;;;5025303;28;20567;-75
2022/11/04 04:10:42;;;;;;;27.00;25.90;;;10.60;92.30;;;;;;5009853;28;20560;-75
2022/11/04 04:13:17;;;;;;;18.63;17.93;;;10.50;92.10;;;;;;5017624;28;20945;-75
2022/11/04 04:15:52;;;;;;;24.33;23.00;;;10.50;92.50;;;;;;5021529;28;21363;-75
2022/11/04 04:18:26;;;;;;;31.90;30.60;;;10.50;92.90;;;;;;5024646;28;20825;-75
2022/11/04 04:20:56;;;;;;;16.30;15.53;;;10.40;92.80;;;;;;5019031;28;21035;-75
2022/11/04 04:29:02;;;;;;;18.20;17.50;;;10.40;92.50;;;;;;5019384;28;20477;-75
2022/11/04 04:31:50;;;;;;;27.40;26.10;;;10.40;92.40;;;;;;5021898;28;20969;-75
2022/11/04 04:34:18;;;;;;;23.17;22.23;;;10.40;92.60;;;;;;5017189;28;20975;-75
2022/11/04 04:36:50;;;;;;;17.87;17.07;;;10.20;93.40;;;;;;5019300;28;20475;-75
2022/11/04 04:45:03;;;;;;;25.47;24.40;;;10.10;93.90;;;;;;5018397;28;20451;-75
2022/11/04 04:47:42;;;;;;;18.97;18.17;;;10.20;93.20;;;;;;5022114;28;20452;-75
2022/11/04 04:50:12;;;;;;;26.10;24.93;;;10.20;92.70;;;;;;5014679;28;20547;-75
2022/11/04 04:52:41;;;;;;;17.80;16.80;;;10.20;92.90;;;;;;5018096;28;20550;-75
2022/11/04 04:55:09;;;;;;;27.80;26.40;;;10.10;93.20;;;;;;5026876;28;20471;-75
2022/11/04 04:57:36;;;;;;;31.00;29.73;;;10.10;93.40;;;;;;5019682;28;20453;-75
2022/11/04 05:00:09;;;;;;;30.73;29.47;;;10.10;92.80;;;;;;5026804;28;20874;-75
2022/11/04 05:02:37;;;;;;;31.50;30.10;;;10.10;92.70;;;;;;5022051;28;20460;-75
2022/11/04 05:05:04;;;;;;;18.37;17.57;;;10.00;92.70;;;;;;5022406;28;22394;-75
2022/11/04 05:07:31;;;;;;;26.50;25.30;;;9.90;93.20;;;;;;5026309;28;20534;-75
2022/11/04 05:09:58;;;;;;;14.23;13.53;;;9.90;94.10;;;;;;5026946;28;20521;-75
2022/11/04 05:13:24;;;;;;;25.10;24.00;;;9.80;94.50;;;;;;5025473;28;23056;-75
2022/11/04 05:15:12;;;;;;;28.80;27.40;;;9.80;94.40;;;;;;5023474;28;20472;-75
2022/11/04 05:17:40;;;;;;;27.87;26.43;;;9.80;94.40;;;;;;5022716;28;20657;-75
2022/11/04 05:20:09;;;;;;;21.73;20.73;;;9.80;94.20;;;;;;5025600;28;20561;-76
2022/11/04 05:22:36;;;;;;;22.30;21.20;;;9.80;94.00;;;;;;5022281;28;21327;-75
2022/11/04 05:25:03;;;;;;;30.37;29.10;;;9.80;93.80;;;;;;5026068;28;20555;-75
2022/11/04 05:27:30;;;;;;;17.43;16.43;;;9.80;93.60;;;;;;5027248;28;20448;-74
2022/11/04 05:29:56;;;;;;;24.80;23.70;;;9.80;93.50;;;;;;5029245;28;20484;-74
2022/11/04 05:32:23;;;;;;;16.90;16.17;;;9.70;93.90;;;;;;5020903;28;20511;-74
2022/11/04 05:34:52;;;;;;;15.50;14.80;;;9.70;93.90;;;;;;5028023;28;20551;-74
2022/11/04 05:37:18;;;;;;;24.10;23.03;;;9.70;94.00;;;;;;5020947;28;20534;-75
2022/11/04 05:39:45;;;;;;;17.23;16.50;;;9.70;93.50;;;;;;5017530;28;21245;-76
2022/11/04 05:42:12;;;;;;;22.40;21.37;;;9.70;93.20;;;;;;5018354;28;20806;-74
2022/11/04 05:44:39;;;;;;;19.57;18.37;;;9.80;93.00;;;;;;5021747;28;20460;-75
2022/11/04 05:47:06;;;;;;;34.07;32.57;;;9.70;92.90;;;;;;5028027;28;20495;-75
2022/11/04 05:49:33;;;;;;;25.93;24.83;;;9.60;93.20;;;;;;5018383;28;20484;-76
2022/11/04 05:52:01;;;;;;;20.40;19.30;;;9.60;94.10;;;;;;5024785;28;20459;-76
2022/11/04 05:54:28;;;;;;;19.17;18.17;;;9.60;94.00;;;;;;5023910;28;20515;-74
2022/11/04 05:56:55;;;;;;;16.20;15.40;;;9.60;93.50;;;;;;5024214;28;20489;-77
2022/11/04 05:59:22;;;;;;;15.80;14.90;;;9.60;93.30;;;;;;5023496;28;20585;-76
2022/11/04 06:01:49;;;;;;;27.80;26.70;;;9.70;93.00;;;;;;5025055;28;20478;-78
2022/11/04 06:04:17;;;;;;;16.63;15.50;;;9.60;92.80;;;;;;5027553;28;20488;-78
2022/11/04 06:06:45;;;;;;;15.40;14.70;;;9.60;93.10;;;;;;5024642;28;20487;-76
2022/11/04 06:09:13;;;;;;;16.60;15.73;;;9.50;93.40;;;;;;5026156;28;20479;-77
2022/11/04 06:11:40;;;;;;;19.10;18.30;;;9.50;93.60;;;;;;5033125;28;20490;-77
2022/11/04 06:14:07;;;;;;;22.10;20.60;;;9.40;93.80;;;;;;5033387;28;20498;-78
2022/11/04 06:16:34;;;;;;;18.93;18.10;;;9.40;93.90;;;;;;5031932;28;20483;-77
2022/11/04 06:19:01;;;;;;;14.17;13.47;;;9.40;94.20;;;;;;5025747;28;20463;-76
2022/11/04 06:21:29;;;;;;;17.47;16.63;;;9.40;94.10;;;;;;5024262;28;20543;-75
2022/11/04 06:23:59;;;;;;;28.03;26.43;;;9.40;93.90;;;;;;5024649;28;20466;-78
2022/11/04 06:26:30;;;;;;;16.40;15.40;;;9.40;93.90;;;;;;5023836;28;20557;-77
2022/11/04 06:28:57;;;;;;;21.80;20.80;;;9.40;93.70;;;;;;5019205;28;20480;-77
2022/11/04 06:31:24;;;;;;;25.37;24.17;;;9.50;93.90;;;;;;5026123;28;20487;-77
2022/11/04 06:33:51;;;;;;;27.47;26.07;;;9.50;93.60;;;;;;5025921;28;20941;-73
2022/11/04 06:36:18;;;;;;;15.43;14.63;;;9.50;93.70;;;;;;5027332;28;20597;-71
2022/11/04 06:38:45;;;;;;;16.73;15.93;;;9.50;93.30;;;;;;5029689;28;20442;-75
2022/11/04 06:41:14;;;;;;;29.13;27.80;;;9.50;93.30;;;;;;5029499;28;20852;-75
2022/11/04 06:43:42;;;;;;;15.10;14.33;;;9.50;93.60;;;;;;5028519;28;20558;-77
2022/11/04 06:46:25;;;;;;;21.58;20.48;;;9.40;93.70;;;;;;5023931;28;20549;-77
2022/11/04 06:48:55;;;;;;;19.00;18.00;;;9.70;93.20;;;;;;5022419;28;20225;-77
2022/11/04 06:51:23;;;;;;;16.83;16.03;;;9.60;92.90;;;;;;5027997;28;20463;-77
2022/11/04 06:53:50;;;;;;;27.00;25.80;;;9.60;93.10;;;;;;5027462;28;20469;-78
2022/11/04 06:56:17;;;;;;;15.67;14.87;;;9.60;92.90;;;;;;5025552;28;20497;-78
2022/11/04 06:58:47;;;;;;;26.73;25.50;;;9.60;92.90;;;;;;5027987;28;20534;-77
2022/11/04 07:01:15;;;;;;;23.90;22.80;;;9.70;93.00;;;;;;5025912;28;20463;-77
2022/11/04 07:03:42;;;;;;;27.90;26.77;;;9.70;92.70;;;;;;5026818;28;20471;-78
2022/11/04 07:06:12;;;;;;;18.63;17.67;;;9.80;92.40;;;;;;5030422;28;20558;-78
2022/11/04 07:08:40;;;;;;;20.70;19.63;;;9.80;92.20;;;;;;5025658;28;20472;-78
2022/11/04 07:11:07;;;;;;;16.70;15.53;;;9.90;91.90;;;;;;5024727;28;20463;-78
2022/11/04 07:13:34;;;;;;;15.60;14.90;;;9.80;92.10;;;;;;5029436;28;20930;-79
2022/11/04 07:16:04;;;;;;;25.03;23.90;;;9.90;91.90;;;;;;5030522;28;20563;-78
2022/11/04 07:18:32;;;;;;;15.50;14.80;;;10.00;91.70;;;;;;5028646;28;21003;-78
2022/11/04 07:20:59;;;;;;;25.40;24.03;;;10.00;91.60;;;;;;5023184;28;20474;-78
2022/11/04 07:23:27;;;;;;;30.07;28.67;;;10.10;91.20;;;;;;5027715;28;20459;-78
2022/11/04 07:25:54;;;;;;;19.27;18.27;;;10.10;90.90;;;;;;5023961;28;20571;-78
2022/11/04 07:28:23;;;;;;;22.83;21.33;;;10.00;90.90;;;;;;5015762;28;20473;-79
2022/11/04 07:30:49;;;;;;;27.77;26.57;;;10.00;91.00;;;;;;5031458;28;20547;-78
2022/11/04 07:33:18;;;;;;;24.50;23.37;;;10.00;91.30;;;;;;5027435;28;20467;-78
2022/11/04 07:35:45;;;;;;;19.00;17.97;;;10.00;91.90;;;;;;5025673;28;20479;-78
2022/11/04 07:38:12;;;;;;;21.23;20.17;;;10.10;91.70;;;;;;5021498;28;20468;-78
2022/11/04 07:40:39;;;;;;;28.10;26.70;;;10.10;91.40;;;;;;5025499;28;20479;-78
2022/11/04 07:43:06;;;;;;;31.67;30.30;;;10.20;91.30;;;;;;5026016;28;20459;-79
2022/11/04 07:45:33;;;;;;;20.10;18.90;;;10.20;91.10;;;;;;5027465;28;20574;-78
2022/11/04 07:48:00;;;;;;;25.60;24.10;;;10.30;90.60;;;;;;5026083;28;20462;-78
2022/11/04 07:50:29;;;;;;;17.97;17.10;;;10.40;90.30;;;;;;5025676;28;20491;-77
2022/11/04 07:52:57;;;;;;;18.43;17.53;;;10.50;90.00;;;;;;5027093;28;20567;-78
2022/11/04 07:55:24;;;;;;;32.00;30.60;;;10.50;90.00;;;;;;5025124;28;20512;-79
2022/11/04 07:57:51;;;;;;;20.17;19.07;;;10.50;90.20;;;;;;5028577;28;20459;-78
2022/11/04 08:00:19;;;;;;;27.17;25.77;;;10.60;90.00;;;;;;5025853;28;20479;-77
2022/11/04 08:02:46;;;;;;;32.90;31.20;;;10.70;89.50;;;;;;5027092;28;20452;-78
2022/11/04 08:05:14;;;;;;;27.17;25.57;;;10.70;89.30;;;;;;5026196;28;20534;-78
2022/11/04 08:07:42;;;;;;;20.37;19.37;;;10.70;89.30;;;;;;5027997;28;20568;-78
2022/11/04 08:10:10;;;;;;;20.40;19.40;;;10.80;89.20;;;;;;5024302;28;20490;-78
2022/11/04 08:12:38;;;;;;;22.63;21.40;;;10.90;89.20;;;;;;5025785;28;20529;-78
2022/11/04 08:15:06;;;;;;;24.30;22.83;;;10.90;88.70;;;;;;5026970;28;20480;-77
2022/11/04 08:17:32;;;;;;;24.30;23.10;;;10.90;89.40;;;;;;5025160;28;20547;-78
2022/11/04 08:20:00;;;;;;;21.80;20.53;;;11.00;89.30;;;;;;5026858;28;20455;-78
2022/11/04 08:22:26;;;;;;;22.20;20.57;;;11.20;88.00;;;;;;5023643;28;20483;-78
2022/11/04 08:24:55;;;;;;;30.27;28.77;;;11.30;87.20;;;;;;5026865;28;20468;-78
2022/11/04 08:27:22;;;;;;;34.93;33.33;;;11.30;87.10;;;;;;5023721;28;20515;-77
2022/11/04 08:29:49;;;;;;;25.40;24.20;;;11.30;87.50;;;;;;5013432;28;20462;-77
2022/11/04 08:32:17;;;;;;;26.40;24.80;;;11.60;86.70;;;;;;5022525;28;20676;-77
2022/11/04 08:34:44;;;;;;;26.70;25.40;;;11.60;86.80;;;;;;5024230;28;20475;-78
2022/11/04 08:37:14;;;;;;;23.93;22.53;;;11.70;86.50;;;;;;5026657;28;20459;-78
2022/11/04 08:39:42;;;;;;;32.20;30.80;;;11.80;86.60;;;;;;5024595;28;20468;-77
2022/11/04 08:42:10;;;;;;;38.90;36.90;;;12.00;87.30;;;;;;5027883;28;20548;-78
2022/11/04 08:44:38;;;;;;;29.00;27.57;;;12.10;84.60;;;;;;5020775;28;20468;-79
2022/11/04 08:47:05;;;;;;;29.80;28.27;;;12.30;83.20;;;;;;5028141;28;20452;-77
2022/11/04 08:49:37;;;;;;;27.77;26.53;;;12.50;81.80;;;;;;5030886;28;20515;-78
2022/11/04 08:52:04;;;;;;;24.50;23.33;;;12.60;81.40;;;;;;5022947;28;20994;-77
2022/11/04 08:54:31;;;;;;;25.13;24.00;;;12.80;80.30;;;;;;5028404;28;20547;-78
2022/11/04 08:56:58;;;;;;;27.87;26.47;;;12.80;79.70;;;;;;5024763;28;20479;-77
2022/11/04 08:59:26;;;;;;;41.90;40.00;;;12.70;80.30;;;;;;5032427;28;20464;-77
2022/11/04 09:01:56;;;;;;;36.13;34.63;;;12.80;80.50;;;;;;5017900;28;20548;-77
2022/11/04 09:04:23;;;;;;;23.40;22.37;;;12.90;80.00;;;;;;5026576;28;20997;-75
2022/11/04 09:06:51;;;;;;;29.57;27.87;;;13.00;79.30;;;;;;5022079;28;20483;-73
2022/11/04 09:09:18;;;;;;;32.53;31.13;;;13.10;78.60;;;;;;5024966;28;20479;-75
2022/11/04 09:11:45;;;;;;;29.60;28.20;;;13.10;78.70;;;;;;5027424;28;20482;-73
2022/11/04 09:14:13;;;;;;;24.93;23.73;;;13.30;77.80;;;;;;5030237;28;21251;-72
2022/11/04 09:16:45;;;;;;;25.80;24.10;;;13.20;77.40;;;;;;5034506;28;20479;-79
2022/11/04 09:19:12;;;;;;;30.37;28.73;;;13.20;77.30;;;;;;5024943;28;20445;-79
2022/11/04 09:21:38;;;;;;;28.63;26.97;;;13.30;77.20;;;;;;5025976;28;20548;-79
2022/11/04 09:24:06;;;;;;;26.77;25.50;;;13.30;77.10;;;;;;5034773;28;20529;-79
2022/11/04 09:26:33;;;;;;;28.77;27.47;;;13.50;76.00;;;;;;5032638;28;20869;-80
2022/11/04 09:29:01;;;;;;;37.73;35.67;;;13.50;75.40;;;;;;5031427;28;20985;-79
2022/11/04 09:31:30;;;;;;;35.73;33.90;;;13.50;75.50;;;;;;5028650;28;20456;-79
2022/11/04 09:33:58;;;;;;;24.87;23.67;;;13.60;75.10;;;;;;5030591;28;20455;-80
2022/11/04 09:36:25;;;;;;;29.20;27.73;;;13.70;74.50;;;;;;5027463;28;20833;-78
2022/11/04 09:38:52;;;;;;;31.17;29.27;;;13.80;73.60;;;;;;5023442;28;20467;-78
2022/11/04 09:41:38;;;;;;;27.33;26.03;;;13.90;73.40;;;;;;5026843;28;20460;-79
2022/11/04 09:44:17;;;;;;;38.73;36.90;;;13.90;72.80;;;;;;5030743;28;20502;-77
2022/11/04 09:46:47;;;;;;;27.80;26.50;;;13.90;73.00;;;;;;5030905;28;20948;-78
2022/11/04 09:49:16;;;;;;;25.10;23.73;;;13.90;72.60;;;;;;5026999;28;21161;-81
2022/11/04 09:51:46;;;;;;;29.57;28.27;;;14.10;72.70;;;;;;5027970;28;20470;-77
2022/11/04 09:54:20;;;;;;;25.07;23.90;;;14.20;71.20;;;;;;5027847;28;20455;-78
2022/11/04 09:56:50;;;;;;;30.90;29.30;;;14.30;70.80;;;;;;5028562;28;20480;-78
2022/11/04 09:59:25;;;;;;;41.80;39.67;;;14.40;70.60;;;;;;5030194;28;20527;-80
2022/11/04 10:02:03;;;;;;;33.00;31.30;;;14.50;70.10;;;;;;5010280;28;21012;-81
2022/11/04 10:04:45;;;;;;;27.23;25.93;;;14.60;69.90;;;;;;5030233;28;20460;-79
2022/11/04 10:07:26;;;;;;;27.40;26.00;;;14.60;69.80;;;;;;5032817;28;20459;-80
2022/11/04 10:10:03;;;;;;;27.93;26.53;;;14.60;69.70;;;;;;5032842;28;20495;-81
2022/11/04 10:13:00;;;;;;;40.33;38.00;;;14.70;69.90;;;;;;5034012;28;20554;-81
2022/11/04 10:15:46;;;;;;;29.17;27.67;;;14.80;69.90;;;;;;5034085;28;20840;-82
2022/11/04 10:18:26;;;;;;;29.10;27.67;;;15.00;68.40;;;;;;5021030;28;20463;-80
2022/11/04 10:21:03;;;;;;;41.07;39.07;;;15.00;68.30;;;;;;5034711;28;20452;-80
2022/11/04 10:23:34;;;;;;;34.87;32.93;;;15.10;67.50;;;;;;5029133;28;20459;-80
2022/11/04 10:26:08;;;;;;;35.07;33.20;;;15.10;67.10;;;;;;5024695;28;20587;-80
2022/11/04 10:28:40;;;;;;;37.70;35.60;;;15.00;67.60;;;;;;5028885;28;20459;-78
2022/11/04 10:31:12;;;;;;;38.63;36.37;;;15.10;67.20;;;;;;5029830;28;20480;-78
2022/11/04 10:33:43;;;;;;;28.10;26.60;;;15.00;67.50;;;;;;5030114;28;20471;-79
2022/11/04 10:36:12;;;;;;;38.20;36.40;;;15.00;67.60;;;;;;5044498;28;20472;-81
2022/11/04 10:38:44;;;;;;;29.30;27.90;;;15.00;67.70;;;;;;5025885;28;20452;-79
2022/11/04 10:41:22;;;;;;;27.20;25.90;;;15.10;67.80;;;;;;5028398;28;20464;-78
2022/11/04 10:43:51;;;;;;;33.27;31.67;;;15.00;67.70;;;;;;5027225;28;20525;-78
2022/11/04 10:46:43;;;;;;;43.00;40.60;;;15.00;67.40;;;;;;5023842;28;20471;-77
2022/11/04 10:49:46;;;;;;;41.07;39.23;;;15.00;67.50;;;;;;5022403;28;20559;-78
2022/11/04 10:52:15;;;;;;;28.67;27.17;;;15.10;67.70;;;;;;5010387;28;20456;-77
2022/11/04 10:54:44;;;;;;;28.97;27.57;;;15.20;67.20;;;;;;5024193;28;20898;-77
2022/11/04 10:57:12;;;;;;;31.00;29.43;;;15.30;66.50;;;;;;5028453;28;20488;-75
2022/11/04 10:59:51;;;;;;;36.07;34.43;;;15.40;67.00;;;;;;5021628;28;20458;-78
2022/11/04 11:02:18;;;;;;;31.07;29.67;;;15.40;66.90;;;;;;5028850;28;21160;-80
2022/11/04 11:04:46;;;;;;;30.07;28.57;;;15.40;66.90;;;;;;5024920;28;20471;-77
2022/11/04 11:07:22;;;;;;;30.50;28.97;;;15.40;66.90;;;;;;5029293;28;20514;-79
2022/11/04 11:09:55;;;;;;;30.00;28.50;;;15.40;67.00;;;;;;5024554;28;21166;-80
2022/11/04 11:12:29;;;;;;;43.23;41.13;;;15.20;66.80;;;;;;5027092;28;20456;-77
2022/11/04 11:14:56;;;;;;;48.90;46.70;;;15.20;67.60;;;;;;5030676;28;20462;-81
2022/11/04 11:17:26;;;;;;;31.07;29.60;;;15.20;67.40;;;;;;5030187;28;20467;-81
2022/11/04 11:19:58;;;;;;;32.13;30.53;;;15.30;66.40;;;;;;5029546;28;20456;-78
2022/11/04 11:22:34;;;;;;;32.43;30.77;;;15.30;66.40;;;;;;5026253;28;20499;-78
2022/11/04 11:25:25;;;;;;;37.77;35.80;;;15.20;66.20;;;;;;5026376;28;20547;-78
2022/11/04 11:27:55;;;;;;;30.87;29.13;;;15.10;66.70;;;;;;5037787;28;20480;-78
2022/11/04 11:30:27;;;;;;;31.30;29.50;;;15.00;67.00;;;;;;5035258;28;20468;-78
2022/11/04 11:32:57;;;;;;;33.70;32.00;;;14.90;66.80;;;;;;5030960;28;20456;-77
2022/11/04 11:35:30;;;;;;;39.03;37.03;;;15.00;66.90;;;;;;5023551;28;20594;-78
2022/11/04 11:38:04;;;;;;;32.60;30.73;;;15.00;67.30;;;;;;5025714;28;20464;-77
2022/11/04 11:40:36;;;;;;;36.23;34.37;;;15.20;67.10;;;;;;5024481;28;20455;-77
2022/11/04 11:43:05;;;;;;;26.00;24.53;;;15.10;66.70;;;;;;5024586;28;20481;-77
2022/11/04 11:45:33;;;;;;;35.57;33.57;;;15.10;66.90;;;;;;5019369;28;20567;-78
2022/11/04 11:48:01;;;;;;;29.27;27.63;;;15.30;66.50;;;;;;5026795;28;20456;-79
2022/11/04 11:50:34;;;;;;;30.87;29.23;;;15.40;67.20;;;;;;5026219;28;20486;-78
2022/11/04 11:53:15;;;;;;;34.83;33.03;;;15.40;65.60;;;;;;5017970;28;20459;-79
2022/11/04 11:55:49;;;;;;;33.03;31.20;;;15.40;67.80;;;;;;5022090;28;20509;-78
2022/11/04 11:58:36;;;;;;;33.50;31.70;;;15.30;67.40;;;;;;5025894;28;20452;-78
2022/11/04 12:01:09;;;;;;;31.00;29.10;;;15.40;66.30;;;;;;5025480;28;20538;-77
2022/11/04 12:03:39;;;;;;;44.50;42.60;;;15.40;65.90;;;;;;5019468;28;20472;-78
2022/11/04 12:06:25;;;;;;;28.40;26.90;;;15.40;65.80;;;;;;5026420;28;21292;-78
2022/11/04 12:09:13;;;;;;;31.33;29.63;;;15.50;66.20;;;;;;5021563;28;20461;-77
2022/11/04 12:11:52;;;;;;;31.60;29.80;;;15.70;65.20;;;;;;5018689;28;20561;-80
2022/11/04 12:14:26;;;;;;;25.20;23.83;;;15.80;65.10;;;;;;5022413;28;21079;-78
2022/11/04 12:17:11;;;;;;;26.50;25.03;;;15.90;64.40;;;;;;5017775;28;21658;-79
2022/11/04 12:19:50;;;;;;;43.23;41.13;;;15.90;64.70;;;;;;5022793;28;20518;-75
2022/11/04 12:22:26;;;;;;;27.30;25.57;;;15.70;65.20;;;;;;5014138;28;20598;-75
2022/11/04 12:25:03;;;;;;;26.73;25.23;;;15.70;64.70;;;;;;5014561;28;20856;-75
2022/11/04 12:27:40;;;;;;;30.17;28.17;;;15.60;65.00;;;;;;5013719;28;20778;-74
2022/11/04 12:30:11;;;;;;;29.93;28.33;;;15.50;65.60;;;;;;5011047;28;20480;-76
2022/11/04 12:32:52;;;;;;;47.03;44.50;;;15.50;65.20;;;;;;5015486;28;20979;-75
2022/11/04 12:35:33;;;;;;;41.50;39.20;;;15.30;67.90;;;;;;5016609;28;20506;-75
2022/11/04 12:38:14;;;;;;;26.83;25.47;;;15.40;67.50;;;;;;5011965;28;20547;-74
2022/11/04 12:40:51;;;;;;;37.63;35.47;;;15.50;67.80;;;;;;5010361;28;20548;-76
2022/11/04 12:43:25;;;;;;;38.30;36.30;;;15.50;67.60;;;;;;5020313;28;21025;-78
2022/11/04 12:46:03;;;;;;;28.53;26.70;;;15.60;67.00;;;;;;5020409;28;20491;-78
2022/11/04 12:48:49;;;;;;;25.97;24.37;;;15.70;67.10;;;;;;5018970;28;20460;-80
2022/11/04 12:51:28;;;;;;;35.67;33.90;;;15.80;67.00;;;;;;5016469;28;20558;-79
2022/11/04 12:54:21;;;;;;;34.33;32.10;;;15.90;66.50;;;;;;5017726;28;20582;-79
2022/11/04 12:56:57;;;;;;;30.53;28.73;;;16.00;65.40;;;;;;5026227;28;20529;-81
2022/11/04 12:59:45;;;;;;;30.03;28.27;;;16.00;65.60;;;;;;5027898;28;20472;-84
2022/11/04 13:02:19;;;;;;;48.37;45.80;;;16.00;65.00;;;;;;5025832;28;20487;-81
2022/11/04 13:04:55;;;;;;;36.30;34.30;;;16.00;65.30;;;;;;5028412;28;21577;-78
2022/11/04 13:07:28;;;;;;;31.77;30.03;;;16.20;64.90;;;;;;5023858;28;20476;-80
2022/11/04 13:09:59;;;;;;;28.57;27.00;;;16.10;64.90;;;;;;5030192;28;20503;-80
2022/11/04 13:12:36;;;;;;;29.30;27.80;;;16.20;65.20;;;;;;5031738;28;20516;-83
2022/11/04 13:15:12;;;;;;;31.30;29.60;;;16.30;64.10;;;;;;5028940;28;20506;-77
2022/11/04 13:17:41;;;;;;;33.67;31.77;;;16.10;62.80;;;;;;5024078;28;20569;-80
2022/11/04 13:20:17;;;;;;;34.33;32.47;;;15.90;63.60;;;;;;5020502;28;20978;-77